Terminal Aerodrome Forecast
Issued by NWS

Home | Current Version | Previous Version | Text Only | Print | Product List | Glossary On
Versions: 1 2 3 4 5 6 7 8 9 10 11 12 13 14 15 16 17 18
000
FTUS45 KTFX 250531
TAFHLN
TAF
KHLN 250531Z 2506/2606 27010KT P6SM VCSH SCT035 OVC060
     FM250900 28009KT P6SM SCT020 OVC035
     FM251600 31008KT P6SM SCT035 BKN060
     FM252000 01007KT P6SM VCSH SCT040 BKN070=

USA.gov is the U.S. government's official web portal to all federal, state and local government web resources and services.